LDOS

Details ICAO LDOS (OSI)
Name OSIJEK
Region Croatia
Timezone Europe/Zagreb (UTC+1.0)
Plans Departing 128
Arriving 45
Stats Elevation 290 ft / 88 m (AMSL)
Location 45.462353° 18.811338°
Runways 1
Magnetic Variation 4.466° E
Sunrise 2017-12-17 06:20:38 UTC / 2017-12-17 07:20:38 Local
Sunset 2017-12-17 15:03:48 UTC / 2017-12-17 16:03:48 Local
Advertisement - Login to hide

Runways

ID Width Length Bearing (true) Bearing (mag) Surface Threshold Offset Overrun Length
11 148 ft / 45 m 8,181 ft / 2,494 m 110.60° 106.13° Asphalt 0 ft / 0 m 0 ft / 0 m
29 148 ft / 45 m 8,181 ft / 2,494 m 290.63° 286.16° Asphalt 0 ft / 0 m 0 ft / 0 m

Approach Navaids

Runway Type Ident Frequency Range Bearing (true) Bearing (mag) Slope Elevation
29 Localiser IOS 111.50 MHz 25 nm / 46 km 290.54° 286.07° - 272 ft / 83 m (AMSL)
29 Glidescope IOS 111.50 MHz 25 nm / 46 km 290.54° 286.07° 3.00° 276 ft / 84 m (AMSL)

Map

Weather


0- 5 10 15 20 25 30 35+ Temperature / ° C

Clouds and Precipitation
Forecast for 2017-12-17 12:00 UTC. Updated an hour ago

Ground ~20,000 ft ~40,000 ft Winds

METAR

LDOS 171200Z 30008KT CAVOK 02/01 Q1017

TAF

TAF LDOS 171125Z 1712/1812 32008KT 9999 SCT030 TX06/1713Z TNM01/1802Z BECMG 1720/1722 4000 BR BKN010 PROB30 TEMPO 1804/1812 2000 -SN BKN005

Frequencies

Tower 118.80 MHz TWR
Approach 120.15 MHz APP
Approach 118.80 MHz APP
Warning: Do not use this data for real-world aviation or navigation. No guarantee of current accuracy is given.